sensor_id;sensor_type;location;lat;lon;timestamp;P1;durP1;ratioP1;P2;durP2;ratioP2
38312;SDS011;24114;52.260;6.714;2023-04-06T00:02:00;8.57;;;7.60;;
38312;SDS011;24114;52.260;6.714;2023-04-06T00:04:29;9.10;;;7.70;;
38312;SDS011;24114;52.260;6.714;2023-04-06T00:06:57;8.20;;;7.40;;
38312;SDS011;24114;52.260;6.714;2023-04-06T00:09:25;8.75;;;7.88;;
38312;SDS011;24114;52.260;6.714;2023-04-06T00:11:53;8.52;;;7.63;;
38312;SDS011;24114;52.260;6.714;2023-04-06T00:14:21;8.30;;;7.40;;
38312;SDS011;24114;52.260;6.714;2023-04-06T00:16:48;9.35;;;7.78;;
38312;SDS011;24114;52.260;6.714;2023-04-06T00:19:16;9.20;;;8.35;;
38312;SDS011;24114;52.260;6.714;2023-04-06T00:21:45;8.07;;;7.27;;
38312;SDS011;24114;52.260;6.714;2023-04-06T00:24:13;8.40;;;7.50;;
38312;SDS011;24114;52.260;6.714;2023-04-06T00:26:41;9.23;;;8.23;;
38312;SDS011;24114;52.260;6.714;2023-04-06T00:29:09;9.07;;;8.18;;
38312;SDS011;24114;52.260;6.714;2023-04-06T00:31:36;9.25;;;8.15;;
38312;SDS011;24114;52.260;6.714;2023-04-06T00:34:05;10.40;;;7.93;;
38312;SDS011;24114;52.260;6.714;2023-04-06T00:36:32;10.40;;;8.57;;
38312;SDS011;24114;52.260;6.714;2023-04-06T00:39:02;9.25;;;8.35;;
38312;SDS011;24114;52.260;6.714;2023-04-06T00:41:29;8.50;;;7.60;;
38312;SDS011;24114;52.260;6.714;2023-04-06T00:43:57;9.85;;;8.63;;
38312;SDS011;24114;52.260;6.714;2023-04-06T00:46:25;10.38;;;8.50;;
38312;SDS011;24114;52.260;6.714;2023-04-06T00:48:53;11.13;;;8.68;;
38312;SDS011;24114;52.260;6.714;2023-04-06T00:51:21;9.00;;;8.10;;
38312;SDS011;24114;52.260;6.714;2023-04-06T00:53:49;10.57;;;8.80;;
38312;SDS011;24114;52.260;6.714;2023-04-06T00:56:19;9.43;;;8.52;;
38312;SDS011;24114;52.260;6.714;2023-04-06T00:58:47;9.85;;;8.85;;
38312;SDS011;24114;52.260;6.714;2023-04-06T01:01:15;9.68;;;8.68;;
38312;SDS011;24114;52.260;6.714;2023-04-06T01:03:43;9.45;;;8.55;;
38312;SDS011;24114;52.260;6.714;2023-04-06T01:06:13;10.02;;;8.02;;
38312;SDS011;24114;52.260;6.714;2023-04-06T01:08:41;10.27;;;8.40;;
38312;SDS011;24114;52.260;6.714;2023-04-06T01:11:09;9.18;;;8.27;;
38312;SDS011;24114;52.260;6.714;2023-04-06T01:13:38;9.27;;;8.27;;
38312;SDS011;24114;52.260;6.714;2023-04-06T01:16:06;9.07;;;8.18;;
38312;SDS011;24114;52.260;6.714;2023-04-06T01:18:34;9.43;;;8.52;;
38312;SDS011;24114;52.260;6.714;2023-04-06T01:21:02;9.65;;;8.70;;
38312;SDS011;24114;52.260;6.714;2023-04-06T01:23:31;9.38;;;8.40;;
38312;SDS011;24114;52.260;6.714;2023-04-06T01:25:59;9.23;;;8.38;;
38312;SDS011;24114;52.260;6.714;2023-04-06T01:28:26;9.10;;;8.20;;
38312;SDS011;24114;52.260;6.714;2023-04-06T01:30:54;9.27;;;8.18;;
38312;SDS011;24114;52.260;6.714;2023-04-06T01:33:22;9.50;;;8.48;;
38312;SDS011;24114;52.260;6.714;2023-04-06T01:35:49;9.82;;;8.82;;
38312;SDS011;24114;52.260;6.714;2023-04-06T01:38:17;9.80;;;8.80;;
38312;SDS011;24114;52.260;6.714;2023-04-06T01:40:46;9.48;;;8.57;;
38312;SDS011;24114;52.260;6.714;2023-04-06T01:43:14;9.30;;;8.40;;
38312;SDS011;24114;52.260;6.714;2023-04-06T01:45:42;9.40;;;8.43;;
38312;SDS011;24114;52.260;6.714;2023-04-06T01:48:09;9.80;;;8.80;;
38312;SDS011;24114;52.260;6.714;2023-04-06T01:50:37;9.93;;;8.93;;
38312;SDS011;24114;52.260;6.714;2023-04-06T01:53:05;9.75;;;8.75;;
38312;SDS011;24114;52.260;6.714;2023-04-06T01:55:33;9.57;;;8.63;;
38312;SDS011;24114;52.260;6.714;2023-04-06T01:58:02;8.80;;;8.00;;
38312;SDS011;24114;52.260;6.714;2023-04-06T02:00:29;9.70;;;8.65;;
38312;SDS011;24114;52.260;6.714;2023-04-06T02:02:57;9.13;;;8.20;;
38312;SDS011;24114;52.260;6.714;2023-04-06T02:05:25;9.63;;;8.63;;
38312;SDS011;24114;52.260;6.714;2023-04-06T02:07:53;9.73;;;8.52;;
38312;SDS011;24114;52.260;6.714;2023-04-06T02:10:21;9.43;;;8.43;;
38312;SDS011;24114;52.260;6.714;2023-04-06T02:12:49;10.10;;;9.03;;
38312;SDS011;24114;52.260;6.714;2023-04-06T02:15:18;11.82;;;10.15;;
38312;SDS011;24114;52.260;6.714;2023-04-06T02:17:46;11.20;;;10.02;;
38312;SDS011;24114;52.260;6.714;2023-04-06T02:20:13;12.43;;;11.13;;
38312;SDS011;24114;52.260;6.714;2023-04-06T02:22:41;13.00;;;11.68;;
38312;SDS011;24114;52.260;6.714;2023-04-06T02:25:09;14.32;;;12.20;;
38312;SDS011;24114;52.260;6.714;2023-04-06T02:27:38;13.13;;;11.52;;
38312;SDS011;24114;52.260;6.714;2023-04-06T02:30:06;12.18;;;10.88;;
38312;SDS011;24114;52.260;6.714;2023-04-06T02:32:35;12.63;;;11.27;;
38312;SDS011;24114;52.260;6.714;2023-04-06T02:35:03;12.05;;;10.85;;
38312;SDS011;24114;52.260;6.714;2023-04-06T02:37:32;12.53;;;11.17;;
38312;SDS011;24114;52.260;6.714;2023-04-06T02:39:59;12.77;;;11.48;;
38312;SDS011;24114;52.260;6.714;2023-04-06T02:42:27;12.55;;;11.25;;
38312;SDS011;24114;52.260;6.714;2023-04-06T02:44:55;12.35;;;11.05;;
38312;SDS011;24114;52.260;6.714;2023-04-06T02:47:23;12.65;;;11.07;;
38312;SDS011;24114;52.260;6.714;2023-04-06T02:49:52;12.48;;;11.15;;
38312;SDS011;24114;52.260;6.714;2023-04-06T02:52:20;12.48;;;11.18;;
38312;SDS011;24114;52.260;6.714;2023-04-06T02:54:47;12.40;;;11.20;;
38312;SDS011;24114;52.260;6.714;2023-04-06T02:57:17;11.75;;;10.55;;
38312;SDS011;24114;52.260;6.714;2023-04-06T02:59:44;11.48;;;10.38;;
38312;SDS011;24114;52.260;6.714;2023-04-06T03:02:12;11.32;;;10.20;;
38312;SDS011;24114;52.260;6.714;2023-04-06T03:04:40;11.57;;;10.48;;
38312;SDS011;24114;52.260;6.714;2023-04-06T03:07:10;11.77;;;10.57;;
38312;SDS011;24114;52.260;6.714;2023-04-06T03:09:38;12.27;;;10.97;;
38312;SDS011;24114;52.260;6.714;2023-04-06T03:12:06;11.70;;;10.52;;
38312;SDS011;24114;52.260;6.714;2023-04-06T03:14:35;12.40;;;11.20;;
38312;SDS011;24114;52.260;6.714;2023-04-06T03:17:03;11.57;;;10.38;;
38312;SDS011;24114;52.260;6.714;2023-04-06T03:19:31;11.18;;;9.88;;
38312;SDS011;24114;52.260;6.714;2023-04-06T03:21:58;10.98;;;9.88;;
38312;SDS011;24114;52.260;6.714;2023-04-06T03:24:28;11.17;;;10.07;;
38312;SDS011;24114;52.260;6.714;2023-04-06T03:26:55;10.48;;;9.45;;
38312;SDS011;24114;52.260;6.714;2023-04-06T03:29:23;10.85;;;9.85;;
38312;SDS011;24114;52.260;6.714;2023-04-06T03:31:51;10.40;;;9.40;;
38312;SDS011;24114;52.260;6.714;2023-04-06T03:34:19;10.52;;;9.32;;
38312;SDS011;24114;52.260;6.714;2023-04-06T03:36:47;10.55;;;9.55;;
38312;SDS011;24114;52.260;6.714;2023-04-06T03:39:33;10.98;;;9.98;;
38312;SDS011;24114;52.260;6.714;2023-04-06T03:42:01;11.32;;;10.23;;
38312;SDS011;24114;52.260;6.714;2023-04-06T03:44:29;10.38;;;9.25;;
38312;SDS011;24114;52.260;6.714;2023-04-06T03:46:56;11.18;;;9.80;;
38312;SDS011;24114;52.260;6.714;2023-04-06T03:49:24;10.70;;;9.70;;
38312;SDS011;24114;52.260;6.714;2023-04-06T03:51:52;11.15;;;9.95;;
38312;SDS011;24114;52.260;6.714;2023-04-06T03:54:20;10.63;;;9.55;;
38312;SDS011;24114;52.260;6.714;2023-04-06T03:56:49;10.47;;;9.47;;
38312;SDS011;24114;52.260;6.714;2023-04-06T03:59:16;11.48;;;10.38;;
38312;SDS011;24114;52.260;6.714;2023-04-06T04:01:44;11.75;;;10.65;;
38312;SDS011;24114;52.260;6.714;2023-04-06T04:04:12;11.40;;;10.20;;
38312;SDS011;24114;52.260;6.714;2023-04-06T04:06:40;10.90;;;9.80;;
38312;SDS011;24114;52.260;6.714;2023-04-06T04:09:07;11.80;;;10.70;;
38312;SDS011;24114;52.260;6.714;2023-04-06T04:11:35;11.50;;;10.40;;
38312;SDS011;24114;52.260;6.714;2023-04-06T04:14:05;11.60;;;10.27;;
38312;SDS011;24114;52.260;6.714;2023-04-06T04:16:32;11.27;;;10.20;;
38312;SDS011;24114;52.260;6.714;2023-04-06T04:19:00;11.90;;;10.80;;
38312;SDS011;24114;52.260;6.714;2023-04-06T04:21:29;12.43;;;11.20;;
38312;SDS011;24114;52.260;6.714;2023-04-06T04:23:57;11.93;;;10.80;;
38312;SDS011;24114;52.260;6.714;2023-04-06T04:26:25;11.60;;;10.50;;
38312;SDS011;24114;52.260;6.714;2023-04-06T04:28:52;12.07;;;10.87;;
38312;SDS011;24114;52.260;6.714;2023-04-06T04:31:22;12.32;;;11.13;;
38312;SDS011;24114;52.260;6.714;2023-04-06T04:33:49;12.20;;;11.03;;
38312;SDS011;24114;52.260;6.714;2023-04-06T04:36:17;11.85;;;10.75;;
38312;SDS011;24114;52.260;6.714;2023-04-06T04:38:45;11.68;;;10.48;;
38312;SDS011;24114;52.260;6.714;2023-04-06T04:41:13;11.85;;;10.70;;
38312;SDS011;24114;52.260;6.714;2023-04-06T04:43:40;12.43;;;11.18;;
38312;SDS011;24114;52.260;6.714;2023-04-06T04:46:08;12.80;;;11.57;;
38312;SDS011;24114;52.260;6.714;2023-04-06T04:48:37;12.88;;;11.57;;
38312;SDS011;24114;52.260;6.714;2023-04-06T04:51:06;14.77;;;12.03;;
38312;SDS011;24114;52.260;6.714;2023-04-06T04:53:33;14.07;;;12.13;;
38312;SDS011;24114;52.260;6.714;2023-04-06T04:56:01;16.42;;;13.65;;
38312;SDS011;24114;52.260;6.714;2023-04-06T04:58:29;16.15;;;14.25;;
38312;SDS011;24114;52.260;6.714;2023-04-06T05:00:56;15.02;;;13.52;;
38312;SDS011;24114;52.260;6.714;2023-04-06T05:03:24;18.65;;;13.77;;
38312;SDS011;24114;52.260;6.714;2023-04-06T05:05:54;18.25;;;13.32;;
38312;SDS011;24114;52.260;6.714;2023-04-06T05:08:22;18.45;;;14.02;;
38312;SDS011;24114;52.260;6.714;2023-04-06T05:10:50;15.30;;;13.70;;
38312;SDS011;24114;52.260;6.714;2023-04-06T05:13:17;15.35;;;13.65;;
38312;SDS011;24114;52.260;6.714;2023-04-06T05:15:45;16.98;;;13.88;;
38312;SDS011;24114;52.260;6.714;2023-04-06T05:18:13;16.42;;;14.18;;
38312;SDS011;24114;52.260;6.714;2023-04-06T05:20:41;15.15;;;13.43;;
38312;SDS011;24114;52.260;6.714;2023-04-06T05:23:11;14.48;;;12.90;;
38312;SDS011;24114;52.260;6.714;2023-04-06T05:25:38;18.60;;;13.95;;
38312;SDS011;24114;52.260;6.714;2023-04-06T05:28:06;16.98;;;14.15;;
38312;SDS011;24114;52.260;6.714;2023-04-06T05:30:34;14.73;;;12.95;;
38312;SDS011;24114;52.260;6.714;2023-04-06T05:33:02;15.10;;;13.45;;
38312;SDS011;24114;52.260;6.714;2023-04-06T05:35:30;14.73;;;13.23;;
38312;SDS011;24114;52.260;6.714;2023-04-06T05:37:58;15.07;;;13.57;;
38312;SDS011;24114;52.260;6.714;2023-04-06T05:40:27;16.98;;;13.88;;
38312;SDS011;24114;52.260;6.714;2023-04-06T05:42:55;14.45;;;12.95;;
38312;SDS011;24114;52.260;6.714;2023-04-06T05:45:23;15.15;;;12.77;;
38312;SDS011;24114;52.260;6.714;2023-04-06T05:47:51;14.03;;;12.53;;
38312;SDS011;24114;52.260;6.714;2023-04-06T05:50:19;13.38;;;11.98;;
38312;SDS011;24114;52.260;6.714;2023-04-06T05:52:47;14.80;;;13.00;;
38312;SDS011;24114;52.260;6.714;2023-04-06T05:55:14;13.82;;;12.52;;
38312;SDS011;24114;52.260;6.714;2023-04-06T05:57:44;14.35;;;12.85;;
38312;SDS011;24114;52.260;6.714;2023-04-06T06:00:12;14.40;;;12.88;;
38312;SDS011;24114;52.260;6.714;2023-04-06T06:02:40;14.52;;;12.75;;
38312;SDS011;24114;52.260;6.714;2023-04-06T06:05:08;14.55;;;12.70;;
38312;SDS011;24114;52.260;6.714;2023-04-06T06:07:36;14.93;;;13.35;;
38312;SDS011;24114;52.260;6.714;2023-04-06T06:10:04;13.93;;;12.48;;
38312;SDS011;24114;52.260;6.714;2023-04-06T06:12:33;13.98;;;12.52;;
38312;SDS011;24114;52.260;6.714;2023-04-06T06:15:02;14.43;;;12.63;;
38312;SDS011;24114;52.260;6.714;2023-04-06T06:17:30;13.47;;;12.10;;
38312;SDS011;24114;52.260;6.714;2023-04-06T06:19:58;15.43;;;12.77;;
38312;SDS011;24114;52.260;6.714;2023-04-06T06:22:26;14.20;;;12.70;;
38312;SDS011;24114;52.260;6.714;2023-04-06T06:24:53;14.38;;;12.82;;
38312;SDS011;24114;52.260;6.714;2023-04-06T06:27:21;14.77;;;13.18;;
38312;SDS011;24114;52.260;6.714;2023-04-06T06:29:49;15.68;;;12.63;;
38312;SDS011;24114;52.260;6.714;2023-04-06T06:32:18;17.13;;;12.40;;
38312;SDS011;24114;52.260;6.714;2023-04-06T06:34:46;14.57;;;13.07;;
38312;SDS011;24114;52.260;6.714;2023-04-06T06:37:13;15.82;;;13.48;;
38312;SDS011;24114;52.260;6.714;2023-04-06T06:39:41;14.52;;;12.82;;
38312;SDS011;24114;52.260;6.714;2023-04-06T06:42:09;14.45;;;12.95;;
38312;SDS011;24114;52.260;6.714;2023-04-06T06:44:39;14.82;;;13.07;;
38312;SDS011;24114;52.260;6.714;2023-04-06T06:47:07;15.30;;;13.50;;
38312;SDS011;24114;52.260;6.714;2023-04-06T06:49:36;15.95;;;13.07;;
38312;SDS011;24114;52.260;6.714;2023-04-06T06:52:04;20.65;;;13.20;;
38312;SDS011;24114;52.260;6.714;2023-04-06T06:54:32;15.13;;;13.27;;
38312;SDS011;24114;52.260;6.714;2023-04-06T06:56:59;14.70;;;12.53;;
38312;SDS011;24114;52.260;6.714;2023-04-06T06:59:27;14.98;;;12.95;;
38312;SDS011;24114;52.260;6.714;2023-04-06T07:01:55;15.65;;;13.30;;
38312;SDS011;24114;52.260;6.714;2023-04-06T07:04:22;16.00;;;12.67;;
38312;SDS011;24114;52.260;6.714;2023-04-06T07:06:51;17.60;;;13.57;;
38312;SDS011;24114;52.260;6.714;2023-04-06T07:09:19;15.80;;;14.18;;
38312;SDS011;24114;52.260;6.714;2023-04-06T07:11:47;15.43;;;13.30;;
38312;SDS011;24114;52.260;6.714;2023-04-06T07:14:15;16.25;;;13.70;;
38312;SDS011;24114;52.260;6.714;2023-04-06T07:16:43;19.08;;;14.55;;
38312;SDS011;24114;52.260;6.714;2023-04-06T07:19:13;16.10;;;13.93;;
38312;SDS011;24114;52.260;6.714;2023-04-06T07:21:40;15.63;;;13.63;;
38312;SDS011;24114;52.260;6.714;2023-04-06T07:24:09;18.85;;;14.23;;
38312;SDS011;24114;52.260;6.714;2023-04-06T07:26:37;16.85;;;13.93;;
38312;SDS011;24114;52.260;6.714;2023-04-06T07:29:05;19.00;;;14.70;;
38312;SDS011;24114;52.260;6.714;2023-04-06T07:31:33;16.88;;;13.90;;
38312;SDS011;24114;52.260;6.714;2023-04-06T07:34:01;15.48;;;13.77;;
38312;SDS011;24114;52.260;6.714;2023-04-06T07:36:29;16.13;;;14.07;;
38312;SDS011;24114;52.260;6.714;2023-04-06T07:38:57;17.02;;;14.27;;
38312;SDS011;24114;52.260;6.714;2023-04-06T07:41:26;18.92;;;14.13;;
38312;SDS011;24114;52.260;6.714;2023-04-06T07:43:54;17.30;;;14.23;;
38312;SDS011;24114;52.260;6.714;2023-04-06T07:46:21;17.58;;;14.65;;
38312;SDS011;24114;52.260;6.714;2023-04-06T07:48:49;18.73;;;14.03;;
38312;SDS011;24114;52.260;6.714;2023-04-06T07:51:17;18.02;;;14.52;;
38312;SDS011;24114;52.260;6.714;2023-04-06T07:53:45;19.67;;;14.85;;
38312;SDS011;24114;52.260;6.714;2023-04-06T07:56:13;17.40;;;14.30;;
38312;SDS011;24114;52.260;6.714;2023-04-06T07:58:43;18.60;;;14.52;;
38312;SDS011;24114;52.260;6.714;2023-04-06T08:01:11;17.48;;;14.25;;
38312;SDS011;24114;52.260;6.714;2023-04-06T08:03:39;16.50;;;13.82;;
38312;SDS011;24114;52.260;6.714;2023-04-06T08:06:07;19.00;;;14.97;;
38312;SDS011;24114;52.260;6.714;2023-04-06T08:08:34;15.98;;;14.13;;
38312;SDS011;24114;52.260;6.714;2023-04-06T08:11:02;19.65;;;15.50;;
38312;SDS011;24114;52.260;6.714;2023-04-06T08:13:30;18.05;;;14.43;;
38312;SDS011;24114;52.260;6.714;2023-04-06T08:15:59;17.55;;;14.32;;
38312;SDS011;24114;52.260;6.714;2023-04-06T08:18:27;18.07;;;14.80;;
38312;SDS011;24114;52.260;6.714;2023-04-06T08:20:56;30.35;;;22.35;;
38312;SDS011;24114;52.260;6.714;2023-04-06T08:23:24;18.73;;;14.05;;
38312;SDS011;24114;52.260;6.714;2023-04-06T08:25:51;18.08;;;13.98;;
38312;SDS011;24114;52.260;6.714;2023-04-06T08:28:20;16.17;;;13.38;;
38312;SDS011;24114;52.260;6.714;2023-04-06T08:30:48;17.10;;;13.80;;
38312;SDS011;24114;52.260;6.714;2023-04-06T08:33:17;16.08;;;13.90;;
38312;SDS011;24114;52.260;6.714;2023-04-06T08:35:45;17.92;;;14.27;;
38312;SDS011;24114;52.260;6.714;2023-04-06T08:38:12;18.67;;;15.35;;
38312;SDS011;24114;52.260;6.714;2023-04-06T08:40:40;20.30;;;16.27;;
38312;SDS011;24114;52.260;6.714;2023-04-06T08:43:12;23.08;;;17.10;;
38312;SDS011;24114;52.260;6.714;2023-04-06T08:45:41;15.63;;;13.10;;
38312;SDS011;24114;52.260;6.714;2023-04-06T08:49:38;16.45;;;13.05;;
38312;SDS011;24114;52.260;6.714;2023-04-06T08:52:07;15.70;;;12.70;;
38312;SDS011;24114;52.260;6.714;2023-04-06T08:54:35;25.07;;;17.20;;
38312;SDS011;24114;52.260;6.714;2023-04-06T08:57:03;14.88;;;12.98;;
38312;SDS011;24114;52.260;6.714;2023-04-06T08:59:31;16.58;;;14.07;;
38312;SDS011;24114;52.260;6.714;2023-04-06T09:01:59;16.95;;;13.18;;
38312;SDS011;24114;52.260;6.714;2023-04-06T09:04:31;15.77;;;14.07;;
38312;SDS011;24114;52.260;6.714;2023-04-06T09:07:00;16.85;;;13.90;;
38312;SDS011;24114;52.260;6.714;2023-04-06T09:09:28;17.15;;;13.75;;
38312;SDS011;24114;52.260;6.714;2023-04-06T09:11:56;17.60;;;14.02;;
38312;SDS011;24114;52.260;6.714;2023-04-06T09:14:33;16.42;;;13.60;;
38312;SDS011;24114;52.260;6.714;2023-04-06T09:17:02;17.92;;;14.20;;
38312;SDS011;24114;52.260;6.714;2023-04-06T09:19:29;15.48;;;13.88;;
38312;SDS011;24114;52.260;6.714;2023-04-06T09:22:05;18.40;;;14.10;;
38312;SDS011;24114;52.260;6.714;2023-04-06T09:24:40;15.33;;;13.73;;
38312;SDS011;24114;52.260;6.714;2023-04-06T09:27:09;18.42;;;14.73;;
38312;SDS011;24114;52.260;6.714;2023-04-06T09:29:36;17.05;;;13.95;;
38312;SDS011;24114;52.260;6.714;2023-04-06T09:32:04;17.38;;;14.68;;
38312;SDS011;24114;52.260;6.714;2023-04-06T09:34:33;19.17;;;14.82;;
38312;SDS011;24114;52.260;6.714;2023-04-06T09:37:12;16.00;;;14.13;;
38312;SDS011;24114;52.260;6.714;2023-04-06T09:39:41;16.08;;;14.23;;
38312;SDS011;24114;52.260;6.714;2023-04-06T09:42:09;16.90;;;14.57;;
38312;SDS011;24114;52.260;6.714;2023-04-06T09:44:37;17.48;;;14.80;;
38312;SDS011;24114;52.260;6.714;2023-04-06T09:47:06;18.47;;;15.20;;
38312;SDS011;24114;52.260;6.714;2023-04-06T09:49:34;17.92;;;14.65;;
38312;SDS011;24114;52.260;6.714;2023-04-06T09:52:03;17.63;;;14.63;;
38312;SDS011;24114;52.260;6.714;2023-04-06T09:54:32;17.45;;;14.73;;
38312;SDS011;24114;52.260;6.714;2023-04-06T09:57:04;18.77;;;15.23;;
38312;SDS011;24114;52.260;6.714;2023-04-06T09:59:41;17.75;;;14.90;;
38312;SDS011;24114;52.260;6.714;2023-04-06T10:02:14;18.38;;;14.82;;
38312;SDS011;24114;52.260;6.714;2023-04-06T10:04:47;16.73;;;14.93;;
38312;SDS011;24114;52.260;6.714;2023-04-06T10:07:17;16.75;;;14.50;;
38312;SDS011;24114;52.260;6.714;2023-04-06T10:09:47;17.83;;;15.13;;
38312;SDS011;24114;52.260;6.714;2023-04-06T10:12:15;17.55;;;14.73;;
38312;SDS011;24114;52.260;6.714;2023-04-06T10:14:43;18.70;;;14.23;;
38312;SDS011;24114;52.260;6.714;2023-04-06T10:17:11;17.38;;;14.88;;
38312;SDS011;24114;52.260;6.714;2023-04-06T10:19:41;17.93;;;14.50;;
38312;SDS011;24114;52.260;6.714;2023-04-06T10:22:12;18.97;;;14.90;;
38312;SDS011;24114;52.260;6.714;2023-04-06T10:24:43;16.63;;;13.95;;
38312;SDS011;24114;52.260;6.714;2023-04-06T10:27:12;17.45;;;14.70;;
38312;SDS011;24114;52.260;6.714;2023-04-06T10:29:43;17.52;;;15.43;;
38312;SDS011;24114;52.260;6.714;2023-04-06T10:32:12;16.67;;;14.90;;
38312;SDS011;24114;52.260;6.714;2023-04-06T10:34:40;18.33;;;15.60;;
38312;SDS011;24114;52.260;6.714;2023-04-06T10:37:12;17.42;;;14.90;;
38312;SDS011;24114;52.260;6.714;2023-04-06T10:39:47;19.35;;;16.13;;
38312;SDS011;24114;52.260;6.714;2023-04-06T10:42:16;18.20;;;15.53;;
38312;SDS011;24114;52.260;6.714;2023-04-06T10:44:44;17.80;;;15.13;;
38312;SDS011;24114;52.260;6.714;2023-04-06T10:47:16;19.30;;;16.20;;
38312;SDS011;24114;52.260;6.714;2023-04-06T10:49:44;20.60;;;16.23;;
38312;SDS011;24114;52.260;6.714;2023-04-06T10:52:12;18.80;;;15.75;;
38312;SDS011;24114;52.260;6.714;2023-04-06T10:54:41;18.53;;;15.80;;
38312;SDS011;24114;52.260;6.714;2023-04-06T10:57:10;18.23;;;15.82;;
38312;SDS011;24114;52.260;6.714;2023-04-06T10:59:42;17.42;;;15.52;;
38312;SDS011;24114;52.260;6.714;2023-04-06T11:02:18;22.95;;;16.45;;
38312;SDS011;24114;52.260;6.714;2023-04-06T11:04:54;17.80;;;15.27;;
38312;SDS011;24114;52.260;6.714;2023-04-06T11:07:23;19.55;;;15.15;;
38312;SDS011;24114;52.260;6.714;2023-04-06T11:09:52;17.85;;;15.15;;
38312;SDS011;24114;52.260;6.714;2023-04-06T11:12:39;17.92;;;14.20;;
38312;SDS011;24114;52.260;6.714;2023-04-06T11:15:09;19.03;;;16.00;;
38312;SDS011;24114;52.260;6.714;2023-04-06T11:17:37;18.27;;;15.13;;
38312;SDS011;24114;52.260;6.714;2023-04-06T11:20:09;18.48;;;15.45;;
38312;SDS011;24114;52.260;6.714;2023-04-06T11:22:47;21.25;;;15.93;;
38312;SDS011;24114;52.260;6.714;2023-04-06T11:25:15;17.65;;;15.07;;
38312;SDS011;24114;52.260;6.714;2023-04-06T11:27:44;16.42;;;14.52;;
38312;SDS011;24114;52.260;6.714;2023-04-06T11:30:14;17.20;;;15.30;;
38312;SDS011;24114;52.260;6.714;2023-04-06T11:32:42;16.77;;;14.70;;
38312;SDS011;24114;52.260;6.714;2023-04-06T11:35:11;19.55;;;15.63;;
38312;SDS011;24114;52.260;6.714;2023-04-06T11:37:42;19.63;;;15.00;;
38312;SDS011;24114;52.260;6.714;2023-04-06T11:40:10;18.65;;;15.23;;
38312;SDS011;24114;52.260;6.714;2023-04-06T11:42:38;18.02;;;15.27;;
38312;SDS011;24114;52.260;6.714;2023-04-06T11:45:06;18.88;;;15.75;;
38312;SDS011;24114;52.260;6.714;2023-04-06T11:47:36;19.70;;;15.32;;
38312;SDS011;24114;52.260;6.714;2023-04-06T11:50:05;19.77;;;15.00;;
38312;SDS011;24114;52.260;6.714;2023-04-06T11:52:33;18.35;;;14.85;;
38312;SDS011;24114;52.260;6.714;2023-04-06T11:55:10;22.77;;;15.43;;
38312;SDS011;24114;52.260;6.714;2023-04-06T11:57:38;17.58;;;14.93;;
38312;SDS011;24114;52.260;6.714;2023-04-06T12:00:07;20.88;;;16.10;;
38312;SDS011;24114;52.260;6.714;2023-04-06T12:02:38;18.50;;;15.50;;
38312;SDS011;24114;52.260;6.714;2023-04-06T12:05:06;20.42;;;16.70;;
38312;SDS011;24114;52.260;6.714;2023-04-06T12:07:34;19.08;;;16.00;;
38312;SDS011;24114;52.260;6.714;2023-04-06T12:10:02;23.23;;;16.60;;
38312;SDS011;24114;52.260;6.714;2023-04-06T12:12:31;26.55;;;20.35;;
38312;SDS011;24114;52.260;6.714;2023-04-06T12:14:59;28.55;;;20.90;;
38312;SDS011;24114;52.260;6.714;2023-04-06T12:17:27;19.35;;;16.90;;
38312;SDS011;24114;52.260;6.714;2023-04-06T12:19:56;24.67;;;17.98;;
38312;SDS011;24114;52.260;6.714;2023-04-06T12:22:31;21.52;;;16.77;;
38312;SDS011;24114;52.260;6.714;2023-04-06T12:24:58;21.48;;;17.58;;
38312;SDS011;24114;52.260;6.714;2023-04-06T12:27:26;22.73;;;17.33;;
38312;SDS011;24114;52.260;6.714;2023-04-06T12:29:54;18.73;;;16.50;;
38312;SDS011;24114;52.260;6.714;2023-04-06T12:32:21;19.38;;;17.05;;
38312;SDS011;24114;52.260;6.714;2023-04-06T12:34:50;19.58;;;16.48;;
38312;SDS011;24114;52.260;6.714;2023-04-06T12:37:20;19.00;;;16.63;;
38312;SDS011;24114;52.260;6.714;2023-04-06T12:39:48;21.73;;;17.60;;
38312;SDS011;24114;52.260;6.714;2023-04-06T12:42:16;18.75;;;16.33;;
38312;SDS011;24114;52.260;6.714;2023-04-06T12:44:43;19.52;;;16.90;;
38312;SDS011;24114;52.260;6.714;2023-04-06T12:47:13;21.17;;;16.90;;
38312;SDS011;24114;52.260;6.714;2023-04-06T12:49:41;23.03;;;16.63;;
38312;SDS011;24114;52.260;6.714;2023-04-06T12:52:10;18.80;;;16.23;;
38312;SDS011;24114;52.260;6.714;2023-04-06T12:56:22;18.90;;;15.93;;
38312;SDS011;24114;52.260;6.714;2023-04-06T12:58:51;19.55;;;15.85;;
38312;SDS011;24114;52.260;6.714;2023-04-06T13:01:19;20.13;;;16.70;;
38312;SDS011;24114;52.260;6.714;2023-04-06T13:03:47;16.85;;;14.30;;
38312;SDS011;24114;52.260;6.714;2023-04-06T13:06:15;17.27;;;14.52;;
38312;SDS011;24114;52.260;6.714;2023-04-06T13:08:42;17.95;;;12.95;;
38312;SDS011;24114;52.260;6.714;2023-04-06T13:11:10;12.90;;;11.48;;
38312;SDS011;24114;52.260;6.714;2023-04-06T13:13:40;14.00;;;10.90;;
38312;SDS011;24114;52.260;6.714;2023-04-06T13:16:07;11.73;;;10.50;;
38312;SDS011;24114;52.260;6.714;2023-04-06T13:18:36;13.43;;;10.53;;
38312;SDS011;24114;52.260;6.714;2023-04-06T13:21:05;13.95;;;10.98;;
38312;SDS011;24114;52.260;6.714;2023-04-06T13:23:33;12.87;;;11.10;;
38312;SDS011;24114;52.260;6.714;2023-04-06T13:26:02;12.73;;;10.95;;
38312;SDS011;24114;52.260;6.714;2023-04-06T13:28:30;14.13;;;11.93;;
38312;SDS011;24114;52.260;6.714;2023-04-06T13:31:00;14.55;;;12.32;;
38312;SDS011;24114;52.260;6.714;2023-04-06T13:33:29;13.95;;;11.93;;
38312;SDS011;24114;52.260;6.714;2023-04-06T13:35:57;15.73;;;11.95;;
38312;SDS011;24114;52.260;6.714;2023-04-06T13:38:25;14.30;;;12.48;;
38312;SDS011;24114;52.260;6.714;2023-04-06T13:40:53;14.93;;;11.60;;
38312;SDS011;24114;52.260;6.714;2023-04-06T13:43:22;14.23;;;12.70;;
38312;SDS011;24114;52.260;6.714;2023-04-06T13:45:52;16.17;;;11.77;;
38312;SDS011;24114;52.260;6.714;2023-04-06T13:48:23;13.93;;;12.35;;
38312;SDS011;24114;52.260;6.714;2023-04-06T13:50:51;14.30;;;11.80;;
38312;SDS011;24114;52.260;6.714;2023-04-06T13:53:19;16.88;;;12.18;;
38312;SDS011;24114;52.260;6.714;2023-04-06T13:55:52;18.27;;;13.48;;
38312;SDS011;24114;52.260;6.714;2023-04-06T13:58:20;14.73;;;12.38;;
38312;SDS011;24114;52.260;6.714;2023-04-06T14:00:48;13.85;;;11.85;;
38312;SDS011;24114;52.260;6.714;2023-04-06T14:03:16;14.82;;;12.60;;
38312;SDS011;24114;52.260;6.714;2023-04-06T14:05:45;16.90;;;12.95;;
38312;SDS011;24114;52.260;6.714;2023-04-06T14:08:13;16.73;;;14.10;;
38312;SDS011;24114;52.260;6.714;2023-04-06T14:10:41;17.40;;;14.75;;
38312;SDS011;24114;52.260;6.714;2023-04-06T14:13:09;18.70;;;16.00;;
38312;SDS011;24114;52.260;6.714;2023-04-06T14:15:36;16.38;;;14.32;;
38312;SDS011;24114;52.260;6.714;2023-04-06T14:18:04;15.70;;;12.88;;
38312;SDS011;24114;52.260;6.714;2023-04-06T14:20:32;15.50;;;12.95;;
38312;SDS011;24114;52.260;6.714;2023-04-06T14:23:01;16.33;;;13.10;;
38312;SDS011;24114;52.260;6.714;2023-04-06T14:25:29;17.60;;;13.30;;
38312;SDS011;24114;52.260;6.714;2023-04-06T14:27:58;14.48;;;12.18;;
38312;SDS011;24114;52.260;6.714;2023-04-06T14:30:27;17.73;;;12.48;;
38312;SDS011;24114;52.260;6.714;2023-04-06T14:32:56;15.00;;;13.10;;
38312;SDS011;24114;52.260;6.714;2023-04-06T14:35:24;14.38;;;12.88;;
38312;SDS011;24114;52.260;6.714;2023-04-06T14:37:54;14.57;;;12.87;;